sensor_id;sensor_type;location;lat;lon;timestamp;temperature;humidity
21580;DHT22;10951;59.656;9.666;2023-01-16T00:02:13;-3.00;99.90
21580;DHT22;10951;59.656;9.666;2023-01-16T00:04:41;-3.00;99.90
21580;DHT22;10951;59.656;9.666;2023-01-16T00:07:08;-3.10;99.90
21580;DHT22;10951;59.656;9.666;2023-01-16T00:09:35;-3.10;99.90
21580;DHT22;10951;59.656;9.666;2023-01-16T00:12:02;-3.10;99.90
21580;DHT22;10951;59.656;9.666;2023-01-16T00:14:29;-3.20;99.90
21580;DHT22;10951;59.656;9.666;2023-01-16T00:16:57;-3.20;99.90
21580;DHT22;10951;59.656;9.666;2023-01-16T00:19:25;-3.10;99.90
21580;DHT22;10951;59.656;9.666;2023-01-16T00:21:53;-3.10;99.90
21580;DHT22;10951;59.656;9.666;2023-01-16T00:24:20;-3.00;99.90
21580;DHT22;10951;59.656;9.666;2023-01-16T00:26:49;-3.00;99.90
21580;DHT22;10951;59.656;9.666;2023-01-16T00:29:17;-3.00;99.90
21580;DHT22;10951;59.656;9.666;2023-01-16T00:31:44;-2.90;99.90
21580;DHT22;10951;59.656;9.666;2023-01-16T00:34:11;-3.00;99.90
21580;DHT22;10951;59.656;9.666;2023-01-16T00:36:38;-2.90;99.90
21580;DHT22;10951;59.656;9.666;2023-01-16T00:39:08;-2.90;99.90
21580;DHT22;10951;59.656;9.666;2023-01-16T00:41:35;-3.00;99.90
21580;DHT22;10951;59.656;9.666;2023-01-16T00:44:02;-3.00;99.90
21580;DHT22;10951;59.656;9.666;2023-01-16T00:46:29;-3.00;99.90
21580;DHT22;10951;59.656;9.666;2023-01-16T00:48:56;-3.00;99.90
21580;DHT22;10951;59.656;9.666;2023-01-16T00:51:23;-3.00;99.90
21580;DHT22;10951;59.656;9.666;2023-01-16T00:53:50;-2.90;99.90
21580;DHT22;10951;59.656;9.666;2023-01-16T00:56:17;-2.80;99.90
21580;DHT22;10951;59.656;9.666;2023-01-16T00:58:44;-2.80;99.90
21580;DHT22;10951;59.656;9.666;2023-01-16T01:01:11;-2.90;99.90
21580;DHT22;10951;59.656;9.666;2023-01-16T01:03:40;-2.90;99.90
21580;DHT22;10951;59.656;9.666;2023-01-16T01:06:09;-3.00;99.90
21580;DHT22;10951;59.656;9.666;2023-01-16T01:08:38;-2.90;99.90
21580;DHT22;10951;59.656;9.666;2023-01-16T01:11:10;-2.90;99.90
21580;DHT22;10951;59.656;9.666;2023-01-16T01:13:37;-2.90;99.90
21580;DHT22;10951;59.656;9.666;2023-01-16T01:16:05;-2.90;99.90
21580;DHT22;10951;59.656;9.666;2023-01-16T01:18:32;-2.90;99.90
21580;DHT22;10951;59.656;9.666;2023-01-16T01:20:59;-2.80;99.90
21580;DHT22;10951;59.656;9.666;2023-01-16T01:23:26;-2.80;99.90
21580;DHT22;10951;59.656;9.666;2023-01-16T01:25:53;-2.80;99.90
21580;DHT22;10951;59.656;9.666;2023-01-16T01:28:20;-2.80;99.90
21580;DHT22;10951;59.656;9.666;2023-01-16T01:30:47;-2.80;99.90
21580;DHT22;10951;59.656;9.666;2023-01-16T01:33:14;-2.90;99.90
21580;DHT22;10951;59.656;9.666;2023-01-16T01:35:41;-3.00;99.90
21580;DHT22;10951;59.656;9.666;2023-01-16T01:38:08;-3.00;99.90
21580;DHT22;10951;59.656;9.666;2023-01-16T01:40:35;-3.10;99.90
21580;DHT22;10951;59.656;9.666;2023-01-16T01:43:02;-3.00;99.90
21580;DHT22;10951;59.656;9.666;2023-01-16T01:45:31;-3.00;99.90
21580;DHT22;10951;59.656;9.666;2023-01-16T01:50:42;-2.90;99.90
21580;DHT22;10951;59.656;9.666;2023-01-16T01:53:30;-2.90;99.90
21580;DHT22;10951;59.656;9.666;2023-01-16T01:56:02;-3.00;99.90
21580;DHT22;10951;59.656;9.666;2023-01-16T01:58:31;-3.00;99.90
21580;DHT22;10951;59.656;9.666;2023-01-16T02:00:59;-3.00;99.90
21580;DHT22;10951;59.656;9.666;2023-01-16T02:03:38;-3.00;99.90
21580;DHT22;10951;59.656;9.666;2023-01-16T02:06:12;-2.90;99.90
21580;DHT22;10951;59.656;9.666;2023-01-16T02:08:41;-2.80;99.90
21580;DHT22;10951;59.656;9.666;2023-01-16T02:11:18;-2.80;99.90
21580;DHT22;10951;59.656;9.666;2023-01-16T02:13:57;-2.80;99.90
21580;DHT22;10951;59.656;9.666;2023-01-16T02:16:25;-2.90;99.90
21580;DHT22;10951;59.656;9.666;2023-01-16T02:19:25;-2.90;99.90
21580;DHT22;10951;59.656;9.666;2023-01-16T02:36:08;-2.70;99.90
21580;DHT22;10951;59.656;9.666;2023-01-16T02:41:54;-2.50;99.90
21580;DHT22;10951;59.656;9.666;2023-01-16T02:55:54;-2.60;99.90
21580;DHT22;10951;59.656;9.666;2023-01-16T02:58:24;-2.60;99.90
21580;DHT22;10951;59.656;9.666;2023-01-16T03:00:58;-2.70;99.90
21580;DHT22;10951;59.656;9.666;2023-01-16T03:06:12;-2.90;99.90
21580;DHT22;10951;59.656;9.666;2023-01-16T03:08:43;-3.00;99.90
21580;DHT22;10951;59.656;9.666;2023-01-16T03:11:18;-3.00;99.90
21580;DHT22;10951;59.656;9.666;2023-01-16T03:14:10;-2.90;99.90
21580;DHT22;10951;59.656;9.666;2023-01-16T03:20:01;-2.80;99.90
21580;DHT22;10951;59.656;9.666;2023-01-16T03:25:33;-2.70;99.90
21580;DHT22;10951;59.656;9.666;2023-01-16T03:28:11;-2.80;99.90
21580;DHT22;10951;59.656;9.666;2023-01-16T03:30:54;-2.90;99.90
21580;DHT22;10951;59.656;9.666;2023-01-16T03:33:36;-2.90;99.90
21580;DHT22;10951;59.656;9.666;2023-01-16T03:36:57;-2.80;99.90
21580;DHT22;10951;59.656;9.666;2023-01-16T03:39:06;-2.80;99.90
21580;DHT22;10951;59.656;9.666;2023-01-16T03:41:35;-2.80;99.90
21580;DHT22;10951;59.656;9.666;2023-01-16T03:44:20;-2.90;99.90
21580;DHT22;10951;59.656;9.666;2023-01-16T03:46:53;-2.80;99.90
21580;DHT22;10951;59.656;9.666;2023-01-16T03:49:25;-2.70;99.90
21580;DHT22;10951;59.656;9.666;2023-01-16T03:51:57;-2.60;99.90
21580;DHT22;10951;59.656;9.666;2023-01-16T03:57:31;-2.60;99.90
21580;DHT22;10951;59.656;9.666;2023-01-16T04:00:00;-2.60;99.90
21580;DHT22;10951;59.656;9.666;2023-01-16T04:02:46;-2.60;99.90
21580;DHT22;10951;59.656;9.666;2023-01-16T04:05:22;-2.60;99.90
21580;DHT22;10951;59.656;9.666;2023-01-16T04:08:15;-2.70;99.90
21580;DHT22;10951;59.656;9.666;2023-01-16T04:10:45;-2.70;99.90
21580;DHT22;10951;59.656;9.666;2023-01-16T04:13:17;-2.70;99.90
21580;DHT22;10951;59.656;9.666;2023-01-16T04:15:48;-2.80;99.90
21580;DHT22;10951;59.656;9.666;2023-01-16T04:18:17;-2.70;99.90
21580;DHT22;10951;59.656;9.666;2023-01-16T04:20:46;-2.60;99.90
21580;DHT22;10951;59.656;9.666;2023-01-16T04:23:16;-2.40;99.90
21580;DHT22;10951;59.656;9.666;2023-01-16T04:25:44;-2.40;99.90
21580;DHT22;10951;59.656;9.666;2023-01-16T04:28:12;-2.40;99.90
21580;DHT22;10951;59.656;9.666;2023-01-16T04:30:39;-2.40;99.90
21580;DHT22;10951;59.656;9.666;2023-01-16T04:33:08;-2.40;99.90
21580;DHT22;10951;59.656;9.666;2023-01-16T04:35:36;-2.40;99.90
21580;DHT22;10951;59.656;9.666;2023-01-16T04:38:02;-2.30;99.90
21580;DHT22;10951;59.656;9.666;2023-01-16T04:40:29;-2.30;99.90
21580;DHT22;10951;59.656;9.666;2023-01-16T04:42:56;-2.20;99.90
21580;DHT22;10951;59.656;9.666;2023-01-16T04:45:23;-2.10;99.90
21580;DHT22;10951;59.656;9.666;2023-01-16T04:47:51;-2.10;99.90
21580;DHT22;10951;59.656;9.666;2023-01-16T04:50:18;-2.10;99.90
21580;DHT22;10951;59.656;9.666;2023-01-16T04:52:46;-2.10;99.90
21580;DHT22;10951;59.656;9.666;2023-01-16T04:55:14;-1.90;99.90
21580;DHT22;10951;59.656;9.666;2023-01-16T04:57:41;-1.80;99.90
21580;DHT22;10951;59.656;9.666;2023-01-16T05:00:09;-1.70;99.90
21580;DHT22;10951;59.656;9.666;2023-01-16T05:02:37;-1.80;99.90
21580;DHT22;10951;59.656;9.666;2023-01-16T05:05:04;-1.90;99.90
21580;DHT22;10951;59.656;9.666;2023-01-16T05:07:31;-2.10;99.90
21580;DHT22;10951;59.656;9.666;2023-01-16T05:09:58;-2.30;99.90
21580;DHT22;10951;59.656;9.666;2023-01-16T05:12:25;-2.40;99.90
21580;DHT22;10951;59.656;9.666;2023-01-16T05:14:52;-2.40;99.90
21580;DHT22;10951;59.656;9.666;2023-01-16T05:17:19;-2.50;99.90
21580;DHT22;10951;59.656;9.666;2023-01-16T05:19:50;-2.60;99.90
21580;DHT22;10951;59.656;9.666;2023-01-16T05:22:17;-2.60;99.90
21580;DHT22;10951;59.656;9.666;2023-01-16T05:24:44;-2.70;99.90
21580;DHT22;10951;59.656;9.666;2023-01-16T05:27:11;-2.70;99.90
21580;DHT22;10951;59.656;9.666;2023-01-16T05:29:38;-2.70;99.90
21580;DHT22;10951;59.656;9.666;2023-01-16T05:32:05;-2.70;99.90
21580;DHT22;10951;59.656;9.666;2023-01-16T05:34:32;-2.70;99.90
21580;DHT22;10951;59.656;9.666;2023-01-16T05:36:59;-2.70;99.90
21580;DHT22;10951;59.656;9.666;2023-01-16T05:39:26;-2.80;99.90
21580;DHT22;10951;59.656;9.666;2023-01-16T05:41:53;-2.80;99.90
21580;DHT22;10951;59.656;9.666;2023-01-16T05:44:20;-2.80;99.90
21580;DHT22;10951;59.656;9.666;2023-01-16T05:46:47;-2.80;99.90
21580;DHT22;10951;59.656;9.666;2023-01-16T05:49:14;-2.90;99.90
21580;DHT22;10951;59.656;9.666;2023-01-16T05:51:40;-2.90;99.90
21580;DHT22;10951;59.656;9.666;2023-01-16T05:54:10;-2.90;99.90
21580;DHT22;10951;59.656;9.666;2023-01-16T05:56:38;-2.90;99.90
21580;DHT22;10951;59.656;9.666;2023-01-16T05:59:06;-3.00;99.90
21580;DHT22;10951;59.656;9.666;2023-01-16T06:01:33;-3.10;99.90
21580;DHT22;10951;59.656;9.666;2023-01-16T06:04:00;-3.00;99.90
21580;DHT22;10951;59.656;9.666;2023-01-16T06:06:27;-3.00;99.90
21580;DHT22;10951;59.656;9.666;2023-01-16T06:08:54;-3.10;99.90
21580;DHT22;10951;59.656;9.666;2023-01-16T06:11:21;-3.00;99.90
21580;DHT22;10951;59.656;9.666;2023-01-16T06:13:48;-3.00;99.90
21580;DHT22;10951;59.656;9.666;2023-01-16T06:16:15;-3.00;99.90
21580;DHT22;10951;59.656;9.666;2023-01-16T06:18:42;-3.00;99.90
21580;DHT22;10951;59.656;9.666;2023-01-16T06:21:09;-3.20;99.90
21580;DHT22;10951;59.656;9.666;2023-01-16T06:23:35;-3.30;99.90
21580;DHT22;10951;59.656;9.666;2023-01-16T06:26:03;-3.50;99.90
21580;DHT22;10951;59.656;9.666;2023-01-16T06:28:32;-3.50;99.90
21580;DHT22;10951;59.656;9.666;2023-01-16T06:30:59;-3.60;99.90
21580;DHT22;10951;59.656;9.666;2023-01-16T06:33:26;-3.60;99.90
21580;DHT22;10951;59.656;9.666;2023-01-16T06:35:53;-3.70;99.90
21580;DHT22;10951;59.656;9.666;2023-01-16T06:38:20;-3.70;99.90
21580;DHT22;10951;59.656;9.666;2023-01-16T06:40:47;-3.70;99.90
21580;DHT22;10951;59.656;9.666;2023-01-16T06:43:17;-3.70;99.90
21580;DHT22;10951;59.656;9.666;2023-01-16T06:45:43;-3.80;99.90
21580;DHT22;10951;59.656;9.666;2023-01-16T06:48:13;-3.70;99.90
21580;DHT22;10951;59.656;9.666;2023-01-16T06:50:40;-3.70;99.90
21580;DHT22;10951;59.656;9.666;2023-01-16T06:53:07;-3.80;99.90
21580;DHT22;10951;59.656;9.666;2023-01-16T06:55:34;-3.70;99.90
21580;DHT22;10951;59.656;9.666;2023-01-16T06:58:01;-3.80;99.90
21580;DHT22;10951;59.656;9.666;2023-01-16T07:00:28;-3.80;99.90
21580;DHT22;10951;59.656;9.666;2023-01-16T07:02:56;-3.80;99.90
21580;DHT22;10951;59.656;9.666;2023-01-16T07:05:24;-3.80;99.90
21580;DHT22;10951;59.656;9.666;2023-01-16T07:07:51;-3.90;99.90
21580;DHT22;10951;59.656;9.666;2023-01-16T07:10:19;-3.90;99.90
21580;DHT22;10951;59.656;9.666;2023-01-16T07:12:50;-4.00;99.90
21580;DHT22;10951;59.656;9.666;2023-01-16T07:15:19;-4.00;99.90
21580;DHT22;10951;59.656;9.666;2023-01-16T07:18:05;-4.20;99.90
21580;DHT22;10951;59.656;9.666;2023-01-16T07:20:54;-4.20;99.90
21580;DHT22;10951;59.656;9.666;2023-01-16T07:23:47;-4.20;99.90
21580;DHT22;10951;59.656;9.666;2023-01-16T07:26:15;-4.30;99.90
21580;DHT22;10951;59.656;9.666;2023-01-16T07:28:47;-4.20;99.90
21580;DHT22;10951;59.656;9.666;2023-01-16T07:31:16;-4.20;99.90
21580;DHT22;10951;59.656;9.666;2023-01-16T07:33:45;-4.10;99.90
21580;DHT22;10951;59.656;9.666;2023-01-16T07:36:12;-4.10;99.90
21580;DHT22;10951;59.656;9.666;2023-01-16T07:38:40;-4.10;99.90
21580;DHT22;10951;59.656;9.666;2023-01-16T07:41:07;-4.00;99.90
21580;DHT22;10951;59.656;9.666;2023-01-16T07:43:34;-4.00;99.90
21580;DHT22;10951;59.656;9.666;2023-01-16T07:46:01;-4.10;99.90
21580;DHT22;10951;59.656;9.666;2023-01-16T07:48:28;-4.10;99.90
21580;DHT22;10951;59.656;9.666;2023-01-16T07:50:56;-4.10;99.90
21580;DHT22;10951;59.656;9.666;2023-01-16T07:53:25;-4.10;99.90
21580;DHT22;10951;59.656;9.666;2023-01-16T07:55:55;-4.00;99.90
21580;DHT22;10951;59.656;9.666;2023-01-16T07:58:22;-4.00;99.90
21580;DHT22;10951;59.656;9.666;2023-01-16T08:00:52;-4.00;99.90
21580;DHT22;10951;59.656;9.666;2023-01-16T08:03:19;-3.90;99.90
21580;DHT22;10951;59.656;9.666;2023-01-16T08:05:47;-4.00;99.90
21580;DHT22;10951;59.656;9.666;2023-01-16T08:08:19;-4.00;99.90
21580;DHT22;10951;59.656;9.666;2023-01-16T08:10:47;-4.00;99.90
21580;DHT22;10951;59.656;9.666;2023-01-16T08:13:13;-4.20;99.90
21580;DHT22;10951;59.656;9.666;2023-01-16T08:15:41;-4.20;99.90
21580;DHT22;10951;59.656;9.666;2023-01-16T08:18:07;-4.30;99.90
21580;DHT22;10951;59.656;9.666;2023-01-16T08:20:34;-4.30;99.90
21580;DHT22;10951;59.656;9.666;2023-01-16T08:23:01;-4.30;99.90
21580;DHT22;10951;59.656;9.666;2023-01-16T08:25:28;-4.30;99.90
21580;DHT22;10951;59.656;9.666;2023-01-16T08:27:55;-4.40;99.90
21580;DHT22;10951;59.656;9.666;2023-01-16T08:30:22;-4.40;99.90
21580;DHT22;10951;59.656;9.666;2023-01-16T08:32:49;-4.40;99.90
21580;DHT22;10951;59.656;9.666;2023-01-16T08:35:16;-4.50;99.90
21580;DHT22;10951;59.656;9.666;2023-01-16T08:37:49;-4.50;99.90
21580;DHT22;10951;59.656;9.666;2023-01-16T08:40:18;-4.60;99.90
21580;DHT22;10951;59.656;9.666;2023-01-16T08:42:45;-4.60;99.90
21580;DHT22;10951;59.656;9.666;2023-01-16T08:45:30;-4.60;99.90
21580;DHT22;10951;59.656;9.666;2023-01-16T08:48:22;-4.60;99.90
21580;DHT22;10951;59.656;9.666;2023-01-16T08:51:19;-4.70;99.90
21580;DHT22;10951;59.656;9.666;2023-01-16T08:53:50;-4.70;99.90
21580;DHT22;10951;59.656;9.666;2023-01-16T08:56:18;-4.70;99.90
21580;DHT22;10951;59.656;9.666;2023-01-16T08:58:45;-4.80;99.90
21580;DHT22;10951;59.656;9.666;2023-01-16T09:01:12;-4.70;99.90
21580;DHT22;10951;59.656;9.666;2023-01-16T09:03:42;-4.70;99.90
21580;DHT22;10951;59.656;9.666;2023-01-16T09:06:09;-4.60;99.90
21580;DHT22;10951;59.656;9.666;2023-01-16T09:08:37;-4.70;99.90
21580;DHT22;10951;59.656;9.666;2023-01-16T09:11:04;-4.60;99.90
21580;DHT22;10951;59.656;9.666;2023-01-16T09:13:50;-4.70;99.90
21580;DHT22;10951;59.656;9.666;2023-01-16T09:16:22;-4.60;99.90
21580;DHT22;10951;59.656;9.666;2023-01-16T09:18:50;-4.50;99.90
21580;DHT22;10951;59.656;9.666;2023-01-16T09:21:18;-4.50;99.90
21580;DHT22;10951;59.656;9.666;2023-01-16T09:23:46;-4.50;99.90
21580;DHT22;10951;59.656;9.666;2023-01-16T09:26:13;-4.50;99.90
21580;DHT22;10951;59.656;9.666;2023-01-16T09:28:40;-4.50;99.90
21580;DHT22;10951;59.656;9.666;2023-01-16T09:31:07;-4.50;99.90
21580;DHT22;10951;59.656;9.666;2023-01-16T09:33:34;-4.30;99.90
21580;DHT22;10951;59.656;9.666;2023-01-16T09:36:01;-4.40;99.90
21580;DHT22;10951;59.656;9.666;2023-01-16T09:38:28;-4.30;99.90
21580;DHT22;10951;59.656;9.666;2023-01-16T09:40:58;-4.30;99.90
21580;DHT22;10951;59.656;9.666;2023-01-16T09:43:40;-4.30;99.90
21580;DHT22;10951;59.656;9.666;2023-01-16T09:46:09;-4.20;99.90
21580;DHT22;10951;59.656;9.666;2023-01-16T09:48:46;-4.10;99.90
21580;DHT22;10951;59.656;9.666;2023-01-16T09:51:21;-4.10;99.90
21580;DHT22;10951;59.656;9.666;2023-01-16T09:54:00;-4.10;99.90
21580;DHT22;10951;59.656;9.666;2023-01-16T09:56:49;-4.00;99.90
21580;DHT22;10951;59.656;9.666;2023-01-16T10:02:22;-4.00;99.90
21580;DHT22;10951;59.656;9.666;2023-01-16T10:04:52;-4.00;99.90
21580;DHT22;10951;59.656;9.666;2023-01-16T10:08:27;-3.90;99.90
21580;DHT22;10951;59.656;9.666;2023-01-16T10:16:10;-3.70;99.90
21580;DHT22;10951;59.656;9.666;2023-01-16T10:24:18;-3.60;99.10
21580;DHT22;10951;59.656;9.666;2023-01-16T10:26:58;-3.70;99.00
21580;DHT22;10951;59.656;9.666;2023-01-16T10:37:15;-3.60;99.90
21580;DHT22;10951;59.656;9.666;2023-01-16T10:39:42;-3.40;99.90
21580;DHT22;10951;59.656;9.666;2023-01-16T10:42:12;-3.30;99.90
21580;DHT22;10951;59.656;9.666;2023-01-16T10:47:51;-3.20;99.50
21580;DHT22;10951;59.656;9.666;2023-01-16T10:50:36;-3.00;99.90
21580;DHT22;10951;59.656;9.666;2023-01-16T10:53:05;-2.90;99.90
21580;DHT22;10951;59.656;9.666;2023-01-16T10:55:34;-2.80;99.90
21580;DHT22;10951;59.656;9.666;2023-01-16T10:58:11;-2.70;99.90
21580;DHT22;10951;59.656;9.666;2023-01-16T11:00:41;-2.50;99.90
21580;DHT22;10951;59.656;9.666;2023-01-16T11:06:18;-2.10;99.90
21580;DHT22;10951;59.656;9.666;2023-01-16T11:09:00;-2.10;98.70
21580;DHT22;10951;59.656;9.666;2023-01-16T11:11:29;-2.00;98.30
21580;DHT22;10951;59.656;9.666;2023-01-16T11:14:33;-2.00;98.60
21580;DHT22;10951;59.656;9.666;2023-01-16T11:17:28;-2.00;98.50
21580;DHT22;10951;59.656;9.666;2023-01-16T11:20:30;-2.00;97.30
21580;DHT22;10951;59.656;9.666;2023-01-16T11:23:00;-1.90;96.40
21580;DHT22;10951;59.656;9.666;2023-01-16T11:25:31;-1.90;96.30
21580;DHT22;10951;59.656;9.666;2023-01-16T11:28:02;-1.90;96.90
21580;DHT22;10951;59.656;9.666;2023-01-16T11:30:43;-2.00;97.30
21580;DHT22;10951;59.656;9.666;2023-01-16T11:33:17;-2.00;97.40
21580;DHT22;10951;59.656;9.666;2023-01-16T11:35:58;-2.10;97.10
21580;DHT22;10951;59.656;9.666;2023-01-16T11:38:28;-2.10;97.20
21580;DHT22;10951;59.656;9.666;2023-01-16T11:40:59;-2.10;97.60
21580;DHT22;10951;59.656;9.666;2023-01-16T11:43:27;-2.00;98.10
21580;DHT22;10951;59.656;9.666;2023-01-16T11:49:02;-1.90;96.60
21580;DHT22;10951;59.656;9.666;2023-01-16T11:51:31;-1.90;97.30
21580;DHT22;10951;59.656;9.666;2023-01-16T11:54:00;-1.90;97.10
21580;DHT22;10951;59.656;9.666;2023-01-16T11:57:07;-1.90;96.30
21580;DHT22;10951;59.656;9.666;2023-01-16T12:00:00;-1.90;96.60
21580;DHT22;10951;59.656;9.666;2023-01-16T12:11:32;-1.90;97.00
21580;DHT22;10951;59.656;9.666;2023-01-16T12:14:24;-1.90;97.00
21580;DHT22;10951;59.656;9.666;2023-01-16T12:22:17;-2.00;95.90
21580;DHT22;10951;59.656;9.666;2023-01-16T12:30:34;-2.50;96.80
21580;DHT22;10951;59.656;9.666;2023-01-16T12:38:37;-2.70;97.60
21580;DHT22;10951;59.656;9.666;2023-01-16T12:58:19;-3.20;99.70
21580;DHT22;10951;59.656;9.666;2023-01-16T13:01:06;-3.20;99.80
21580;DHT22;10951;59.656;9.666;2023-01-16T13:03:41;-3.20;99.90
21580;DHT22;10951;59.656;9.666;2023-01-16T13:06:14;-3.20;99.90
21580;DHT22;10951;59.656;9.666;2023-01-16T13:08:45;-3.10;99.90
21580;DHT22;10951;59.656;9.666;2023-01-16T13:11:22;-3.20;99.90
21580;DHT22;10951;59.656;9.666;2023-01-16T13:14:18;-3.20;99.90
21580;DHT22;10951;59.656;9.666;2023-01-16T13:17:12;-3.10;99.90
21580;DHT22;10951;59.656;9.666;2023-01-16T13:19:56;-3.10;99.80
21580;DHT22;10951;59.656;9.666;2023-01-16T13:22:28;-3.20;99.80
21580;DHT22;10951;59.656;9.666;2023-01-16T13:25:09;-3.20;99.40
21580;DHT22;10951;59.656;9.666;2023-01-16T13:27:44;-3.30;99.40
21580;DHT22;10951;59.656;9.666;2023-01-16T13:30:16;-3.40;99.50
21580;DHT22;10951;59.656;9.666;2023-01-16T13:43:52;-3.70;99.90
21580;DHT22;10951;59.656;9.666;2023-01-16T13:46:39;-3.80;99.90
21580;DHT22;10951;59.656;9.666;2023-01-16T13:49:12;-3.90;99.90
21580;DHT22;10951;59.656;9.666;2023-01-16T13:51:44;-4.00;99.90
21580;DHT22;10951;59.656;9.666;2023-01-16T13:54:31;-4.00;99.90
21580;DHT22;10951;59.656;9.666;2023-01-16T13:57:22;-4.10;99.90
21580;DHT22;10951;59.656;9.666;2023-01-16T13:59:55;-4.10;99.90
21580;DHT22;10951;59.656;9.666;2023-01-16T14:02:24;-4.10;99.90
21580;DHT22;10951;59.656;9.666;2023-01-16T14:11:02;-4.20;99.90
21580;DHT22;10951;59.656;9.666;2023-01-16T14:13:35;-4.30;99.90
21580;DHT22;10951;59.656;9.666;2023-01-16T14:21:42;-4.40;99.90
21580;DHT22;10951;59.656;9.666;2023-01-16T14:24:39;-4.40;99.90
21580;DHT22;10951;59.656;9.666;2023-01-16T14:27:11;-4.50;99.90
21580;DHT22;10951;59.656;9.666;2023-01-16T14:29:52;-4.50;99.90
21580;DHT22;10951;59.656;9.666;2023-01-16T14:32:25;-4.50;99.90
21580;DHT22;10951;59.656;9.666;2023-01-16T14:34:57;-4.40;99.90
21580;DHT22;10951;59.656;9.666;2023-01-16T14:37:33;-4.40;99.90
21580;DHT22;10951;59.656;9.666;2023-01-16T14:40:20;-4.50;99.90
21580;DHT22;10951;59.656;9.666;2023-01-16T14:42:56;-4.50;99.90
21580;DHT22;10951;59.656;9.666;2023-01-16T14:58:12;-4.70;99.90
21580;DHT22;10951;59.656;9.666;2023-01-16T15:00:41;-4.80;99.90
21580;DHT22;10951;59.656;9.666;2023-01-16T15:03:14;-4.80;99.90
21580;DHT22;10951;59.656;9.666;2023-01-16T15:05:49;-4.80;99.90
21580;DHT22;10951;59.656;9.666;2023-01-16T15:08:27;-4.80;99.90
21580;DHT22;10951;59.656;9.666;2023-01-16T15:10:56;-4.80;99.90
21580;DHT22;10951;59.656;9.666;2023-01-16T15:13:31;-4.80;99.90
21580;DHT22;10951;59.656;9.666;2023-01-16T15:16:20;-4.80;99.90
21580;DHT22;10951;59.656;9.666;2023-01-16T15:19:19;-4.80;99.90
21580;DHT22;10951;59.656;9.666;2023-01-16T15:22:15;-4.80;99.90
21580;DHT22;10951;59.656;9.666;2023-01-16T15:24:50;-4.80;99.90
21580;DHT22;10951;59.656;9.666;2023-01-16T15:27:25;-4.80;99.90
21580;DHT22;10951;59.656;9.666;2023-01-16T15:32:30;-4.90;99.90
21580;DHT22;10951;59.656;9.666;2023-01-16T15:35:17;-5.00;99.90
21580;DHT22;10951;59.656;9.666;2023-01-16T15:37:53;-5.00;99.90
21580;DHT22;10951;59.656;9.666;2023-01-16T15:40:28;-4.90;99.90
21580;DHT22;10951;59.656;9.666;2023-01-16T15:42:57;-4.90;99.90
21580;DHT22;10951;59.656;9.666;2023-01-16T15:46:08;-4.90;99.90
21580;DHT22;10951;59.656;9.666;2023-01-16T15:51:56;-4.80;99.90
21580;DHT22;10951;59.656;9.666;2023-01-16T15:54:25;-4.80;99.90
21580;DHT22;10951;59.656;9.666;2023-01-16T15:56:53;-4.90;99.90
21580;DHT22;10951;59.656;9.666;2023-01-16T15:59:29;-5.00;99.90
21580;DHT22;10951;59.656;9.666;2023-01-16T16:02:15;-5.10;99.90
21580;DHT22;10951;59.656;9.666;2023-01-16T16:04:44;-5.20;99.90
21580;DHT22;10951;59.656;9.666;2023-01-16T16:07:12;-5.20;99.90
21580;DHT22;10951;59.656;9.666;2023-01-16T16:09:42;-5.20;99.90
21580;DHT22;10951;59.656;9.666;2023-01-16T16:12:10;-5.20;99.90
21580;DHT22;10951;59.656;9.666;2023-01-16T16:14:38;-5.10;99.90
21580;DHT22;10951;59.656;9.666;2023-01-16T16:17:24;-5.10;99.90
21580;DHT22;10951;59.656;9.666;2023-01-16T16:20:43;-5.10;99.90
21580;DHT22;10951;59.656;9.666;2023-01-16T16:23:24;-5.00;99.90
21580;DHT22;10951;59.656;9.666;2023-01-16T16:26:10;-5.00;99.90
21580;DHT22;10951;59.656;9.666;2023-01-16T16:28:42;-5.00;99.90
21580;DHT22;10951;59.656;9.666;2023-01-16T16:31:48;-5.10;99.90
21580;DHT22;10951;59.656;9.666;2023-01-16T16:34:21;-5.10;99.90
21580;DHT22;10951;59.656;9.666;2023-01-16T16:36:54;-5.20;99.90
21580;DHT22;10951;59.656;9.666;2023-01-16T16:45:24;-5.30;99.90
21580;DHT22;10951;59.656;9.666;2023-01-16T16:48:18;-5.20;99.90
21580;DHT22;10951;59.656;9.666;2023-01-16T16:50:46;-5.00;99.90
21580;DHT22;10951;59.656;9.666;2023-01-16T16:53:25;-4.90;99.90
21580;DHT22;10951;59.656;9.666;2023-01-16T16:56:07;-4.90;99.90
21580;DHT22;10951;59.656;9.666;2023-01-16T16:58:44;-4.90;99.90
21580;DHT22;10951;59.656;9.666;2023-01-16T17:01:17;-4.90;99.90
21580;DHT22;10951;59.656;9.666;2023-01-16T17:03:47;-5.00;99.90
21580;DHT22;10951;59.656;9.666;2023-01-16T17:06:23;-5.00;99.90
21580;DHT22;10951;59.656;9.666;2023-01-16T17:08:51;-5.00;99.90
21580;DHT22;10951;59.656;9.666;2023-01-16T17:11:18;-4.90;99.90
21580;DHT22;10951;59.656;9.666;2023-01-16T17:13:44;-4.80;99.90
21580;DHT22;10951;59.656;9.666;2023-01-16T17:16:21;-4.80;99.90
21580;DHT22;10951;59.656;9.666;2023-01-16T17:18:49;-4.80;99.90
21580;DHT22;10951;59.656;9.666;2023-01-16T17:21:18;-4.70;99.90
21580;DHT22;10951;59.656;9.666;2023-01-16T17:23:45;-4.70;99.90
21580;DHT22;10951;59.656;9.666;2023-01-16T17:26:13;-4.70;99.90
21580;DHT22;10951;59.656;9.666;2023-01-16T17:28:42;-4.70;99.90
21580;DHT22;10951;59.656;9.666;2023-01-16T17:31:15;-4.70;99.90
21580;DHT22;10951;59.656;9.666;2023-01-16T17:33:44;-4.80;99.90
21580;DHT22;10951;59.656;9.666;2023-01-16T17:36:23;-4.80;99.90
21580;DHT22;10951;59.656;9.666;2023-01-16T17:38:51;-4.70;99.90
21580;DHT22;10951;59.656;9.666;2023-01-16T17:41:23;-4.60;99.90
21580;DHT22;10951;59.656;9.666;2023-01-16T17:43:51;-4.60;99.90
21580;DHT22;10951;59.656;9.666;2023-01-16T17:46:37;-4.50;99.90
21580;DHT22;10951;59.656;9.666;2023-01-16T17:49:04;-4.50;99.90
21580;DHT22;10951;59.656;9.666;2023-01-16T17:51:31;-4.50;99.90
21580;DHT22;10951;59.656;9.666;2023-01-16T17:53:58;-4.50;99.90
21580;DHT22;10951;59.656;9.666;2023-01-16T17:56:26;-4.50;99.90
21580;DHT22;10951;59.656;9.666;2023-01-16T17:58:54;-4.50;99.90
21580;DHT22;10951;59.656;9.666;2023-01-16T18:01:26;-4.60;99.90
21580;DHT22;10951;59.656;9.666;2023-01-16T18:03:56;-4.60;99.90
21580;DHT22;10951;59.656;9.666;2023-01-16T18:06:26;-4.60;99.90
21580;DHT22;10951;59.656;9.666;2023-01-16T18:08:54;-4.60;99.90
21580;DHT22;10951;59.656;9.666;2023-01-16T18:11:22;-4.70;99.90
21580;DHT22;10951;59.656;9.666;2023-01-16T18:14:11;-4.80;99.90
21580;DHT22;10951;59.656;9.666;2023-01-16T18:16:58;-4.80;99.90
21580;DHT22;10951;59.656;9.666;2023-01-16T18:19:43;-4.80;99.90
21580;DHT22;10951;59.656;9.666;2023-01-16T18:22:10;-4.80;99.90
21580;DHT22;10951;59.656;9.666;2023-01-16T18:24:39;-4.70;99.90
21580;DHT22;10951;59.656;9.666;2023-01-16T18:27:08;-4.80;99.90
21580;DHT22;10951;59.656;9.666;2023-01-16T18:29:36;-4.80;99.90
21580;DHT22;10951;59.656;9.666;2023-01-16T18:32:06;-4.80;99.90
21580;DHT22;10951;59.656;9.666;2023-01-16T18:34:56;-4.70;99.90
21580;DHT22;10951;59.656;9.666;2023-01-16T18:37:41;-4.70;99.90
21580;DHT22;10951;59.656;9.666;2023-01-16T18:40:29;-4.70;99.90
21580;DHT22;10951;59.656;9.666;2023-01-16T18:43:16;-4.80;99.90
21580;DHT22;10951;59.656;9.666;2023-01-16T18:46:02;-4.80;99.90
21580;DHT22;10951;59.656;9.666;2023-01-16T18:48:48;-4.70;99.90
21580;DHT22;10951;59.656;9.666;2023-01-16T18:51:33;-4.70;99.90